sensor_id;sensor_type;location;lat;lon;timestamp;pressure;altitude;pressure_sealevel;temperature;humidity
7337;BME280;54510;42.016;23.098;2022-09-09T00:00:26;-21766.72;;;23.12;63.08
7337;BME280;54510;42.016;23.098;2022-09-09T00:03:12;-21758.78;;;22.83;63.61
7337;BME280;54510;42.016;23.098;2022-09-09T00:06:03;-21767.66;;;23.16;63.30
7337;BME280;54510;42.016;23.098;2022-09-09T00:11:09;-21768.34;;;23.18;62.86
7337;BME280;54510;42.016;23.098;2022-09-09T00:13:48;-21769.44;;;23.22;62.52
7337;BME280;54510;42.016;23.098;2022-09-09T00:16:19;-21772.44;;;23.34;62.86
7337;BME280;54510;42.016;23.098;2022-09-09T00:24:32;-21777.22;;;23.51;62.28
7337;BME280;54510;42.016;23.098;2022-09-09T00:27:08;-21773.41;;;23.37;62.51
7337;BME280;54510;42.016;23.098;2022-09-09T00:32:18;-21773.53;;;23.38;62.70
7337;BME280;54510;42.016;23.098;2022-09-09T00:34:49;-21767.81;;;23.16;63.14
7337;BME280;54510;42.016;23.098;2022-09-09T00:37:19;-21763.97;;;23.02;63.94
7337;BME280;54510;42.016;23.098;2022-09-09T00:39:45;-21755.22;;;22.70;64.50
7337;BME280;54510;42.016;23.098;2022-09-09T00:42:17;-21754.13;;;22.66;64.82
7337;BME280;54510;42.016;23.098;2022-09-09T00:45:02;-21753.19;;;22.62;65.17
7337;BME280;54510;42.016;23.098;2022-09-09T00:58:24;-21752.22;;;22.59;63.97
7337;BME280;54510;42.016;23.098;2022-09-09T01:00:57;-21758.09;;;22.80;63.80
7337;BME280;54510;42.016;23.098;2022-09-09T01:03:35;-21763.44;;;23.00;62.83
7337;BME280;54510;42.016;23.098;2022-09-09T01:11:22;-21760.03;;;22.88;63.65
7337;BME280;54510;42.016;23.098;2022-09-09T01:13:58;-21760.84;;;22.91;63.83
7337;BME280;54510;42.016;23.098;2022-09-09T01:16:28;-21758.94;;;22.83;63.43
7337;BME280;54510;42.016;23.098;2022-09-09T01:18:55;-21758.94;;;22.83;63.09
7337;BME280;54510;42.016;23.098;2022-09-09T01:21:25;-21757.56;;;22.78;63.57
7337;BME280;54510;42.016;23.098;2022-09-09T01:24:41;-21755.38;;;22.70;63.59
7337;BME280;54510;42.016;23.098;2022-09-09T01:26:48;-21755.78;;;22.72;62.97
7337;BME280;54510;42.016;23.098;2022-09-09T01:29:17;-21751.81;;;22.57;63.71
7337;BME280;54510;42.016;23.098;2022-09-09T01:31:55;-21745.25;;;22.33;65.10
7337;BME280;54510;42.016;23.098;2022-09-09T01:34:23;-21744.84;;;22.31;65.57
7337;BME280;54510;42.016;23.098;2022-09-09T01:36:57;-21749.09;;;22.47;64.61
7337;BME280;54510;42.016;23.098;2022-09-09T01:39:24;-21751.28;;;22.55;64.42
7337;BME280;54510;42.016;23.098;2022-09-09T01:41:51;-21750.59;;;22.53;64.10
7337;BME280;54510;42.016;23.098;2022-09-09T01:44:20;-21736.50;;;22.00;64.88
7337;BME280;54510;42.016;23.098;2022-09-09T01:46:46;-21741.84;;;22.20;65.77
7337;BME280;54510;42.016;23.098;2022-09-09T01:49:11;-21737.88;;;22.05;65.79
7337;BME280;54510;42.016;23.098;2022-09-09T01:51:39;-21730.47;;;21.78;66.97
7337;BME280;54510;42.016;23.098;2022-09-09T01:54:06;-21730.34;;;21.78;66.69
7337;BME280;54510;42.016;23.098;2022-09-09T01:56:52;-21732.81;;;21.87;66.69
7337;BME280;54510;42.016;23.098;2022-09-09T02:04:43;-21727.47;;;21.67;67.87
7337;BME280;54510;42.016;23.098;2022-09-09T02:07:29;-21732.94;;;21.87;67.09
7337;BME280;54510;42.016;23.098;2022-09-09T02:13:10;-21736.78;;;22.01;66.22
7337;BME280;54510;42.016;23.098;2022-09-09T02:15:48;-21738.56;;;22.08;66.01
7337;BME280;54510;42.016;23.098;2022-09-09T02:18:22;-21734.88;;;21.94;66.22
7337;BME280;54510;42.016;23.098;2022-09-09T02:20:51;-21740.06;;;22.14;66.04
7337;BME280;54510;42.016;23.098;2022-09-09T02:23:17;-21741.56;;;22.19;65.40
7337;BME280;54510;42.016;23.098;2022-09-09T02:25:44;-21741.97;;;22.21;65.15
7337;BME280;54510;42.016;23.098;2022-09-09T02:28:11;-21748.28;;;22.44;65.29
7337;BME280;54510;42.016;23.098;2022-09-09T02:30:39;-21748.81;;;22.46;64.94
7337;BME280;54510;42.016;23.098;2022-09-09T02:33:06;-21740.19;;;22.14;65.50
7337;BME280;54510;42.016;23.098;2022-09-09T02:35:34;-21747.59;;;22.41;65.18
7337;BME280;54510;42.016;23.098;2022-09-09T02:38:06;-21747.84;;;22.42;65.66
7337;BME280;54510;42.016;23.098;2022-09-09T02:40:32;-21750.03;;;22.51;65.16
7337;BME280;54510;42.016;23.098;2022-09-09T02:42:58;-21752.50;;;22.60;64.78
7337;BME280;54510;42.016;23.098;2022-09-09T02:45:27;-21750.31;;;22.52;65.46
7337;BME280;54510;42.016;23.098;2022-09-09T02:48:17;-21746.22;;;22.36;66.32
7337;BME280;54510;42.016;23.098;2022-09-09T02:56:21;-21749.34;;;22.48;65.55
7337;BME280;54510;42.016;23.098;2022-09-09T02:58:48;-21741.84;;;22.20;65.99
7337;BME280;54510;42.016;23.098;2022-09-09T03:01:14;-21730.91;;;21.80;68.10
7337;BME280;54510;42.016;23.098;2022-09-09T03:03:40;-21730.06;;;21.77;67.85
7337;BME280;54510;42.016;23.098;2022-09-09T03:06:06;-21722.41;;;21.48;68.36
7337;BME280;54510;42.016;23.098;2022-09-09T03:08:32;-21725.16;;;21.58;67.84
7337;BME280;54510;42.016;23.098;2022-09-09T03:11:00;-21726.78;;;21.64;67.51
7337;BME280;54510;42.016;23.098;2022-09-09T03:13:28;-21729.25;;;21.74;67.08
7337;BME280;54510;42.016;23.098;2022-09-09T03:15:54;-21723.09;;;21.51;67.25
7337;BME280;54510;42.016;23.098;2022-09-09T03:18:19;-21719.69;;;21.38;67.86
7337;BME280;54510;42.016;23.098;2022-09-09T03:20:46;-21723.22;;;21.51;67.43
7337;BME280;54510;42.016;23.098;2022-09-09T03:23:16;-21721.03;;;21.43;67.31
7337;BME280;54510;42.016;23.098;2022-09-09T03:25:49;-21711.31;;;21.07;68.37
7337;BME280;54510;42.016;23.098;2022-09-09T03:28:15;-21715.97;;;21.24;67.86
7337;BME280;54510;42.016;23.098;2022-09-09T03:30:40;-21710.91;;;21.06;68.69
7337;BME280;54510;42.016;23.098;2022-09-09T03:33:06;-21718.44;;;21.34;68.18
7337;BME280;54510;42.016;23.098;2022-09-09T03:35:31;-21702.16;;;20.73;69.07
7337;BME280;54510;42.016;23.098;2022-09-09T03:37:57;-21710.50;;;21.04;69.06
7337;BME280;54510;42.016;23.098;2022-09-09T03:40:22;-21704.88;;;20.83;70.08
7337;BME280;54510;42.016;23.098;2022-09-09T03:42:48;-21708.31;;;20.96;70.15
7337;BME280;54510;42.016;23.098;2022-09-09T03:45:14;-21709.53;;;21.01;69.27
7337;BME280;54510;42.016;23.098;2022-09-09T03:47:39;-21717.09;;;21.28;69.04
7337;BME280;54510;42.016;23.098;2022-09-09T03:50:08;-21719.94;;;21.39;68.52
7337;BME280;54510;42.016;23.098;2022-09-09T03:52:39;-21725.69;;;21.60;68.03
7337;BME280;54510;42.016;23.098;2022-09-09T03:55:06;-21725.16;;;21.58;68.44
7337;BME280;54510;42.016;23.098;2022-09-09T03:57:32;-21725.28;;;21.59;68.71
7337;BME280;54510;42.016;23.098;2022-09-09T04:00:03;-21726.38;;;21.63;68.89
7337;BME280;54510;42.016;23.098;2022-09-09T04:02:29;-21728.97;;;21.73;68.99
7337;BME280;54510;42.016;23.098;2022-09-09T04:04:54;-21728.72;;;21.72;68.46
7337;BME280;54510;42.016;23.098;2022-09-09T04:07:20;-21730.91;;;21.80;68.50
7337;BME280;54510;42.016;23.098;2022-09-09T04:09:46;-21726.53;;;21.63;68.81
7337;BME280;54510;42.016;23.098;2022-09-09T04:12:12;-21722.16;;;21.47;68.89
7337;BME280;54510;42.016;23.098;2022-09-09T04:14:38;-21727.47;;;21.67;68.88
7337;BME280;54510;42.016;23.098;2022-09-09T04:17:04;-21730.06;;;21.77;68.45
7337;BME280;54510;42.016;23.098;2022-09-09T04:19:31;-21728.44;;;21.71;68.48
7337;BME280;54510;42.016;23.098;2022-09-09T04:21:57;-21729.41;;;21.74;68.65
7337;BME280;54510;42.016;23.098;2022-09-09T04:24:22;-21732.41;;;21.85;68.39
7337;BME280;54510;42.016;23.098;2022-09-09T04:26:48;-21732.81;;;21.87;68.32
7337;BME280;54510;42.016;23.098;2022-09-09T04:29:13;-21734.59;;;21.93;68.17
7337;BME280;54510;42.016;23.098;2022-09-09T04:31:38;-21732.25;;;21.85;68.11
7337;BME280;54510;42.016;23.098;2022-09-09T04:34:08;-21734.19;;;21.92;68.39
7337;BME280;54510;42.016;23.098;2022-09-09T04:36:33;-21734.72;;;21.94;68.19
7337;BME280;54510;42.016;23.098;2022-09-09T04:38:59;-21737.47;;;22.04;67.89
7337;BME280;54510;42.016;23.098;2022-09-09T04:41:25;-21738.28;;;22.07;67.57
7337;BME280;54510;42.016;23.098;2022-09-09T04:43:50;-21737.47;;;22.04;67.66
7337;BME280;54510;42.016;23.098;2022-09-09T04:46:17;-21739.94;;;22.13;67.29
7337;BME280;54510;42.016;23.098;2022-09-09T04:48:43;-21742.81;;;22.24;66.93
7337;BME280;54510;42.016;23.098;2022-09-09T04:51:12;-21744.16;;;22.29;67.08
7337;BME280;54510;42.016;23.098;2022-09-09T04:53:38;-21735.97;;;21.98;67.54
7337;BME280;54510;42.016;23.098;2022-09-09T04:58:30;-21738.84;;;22.09;67.08
7337;BME280;54510;42.016;23.098;2022-09-09T05:01:05;-21740.63;;;22.16;66.82
7337;BME280;54510;42.016;23.098;2022-09-09T05:03:31;-21745.66;;;22.34;65.94
7337;BME280;54510;42.016;23.098;2022-09-09T05:06:04;-21747.03;;;22.39;65.75
7337;BME280;54510;42.016;23.098;2022-09-09T05:08:30;-21750.84;;;22.54;65.49
7337;BME280;54510;42.016;23.098;2022-09-09T05:10:55;-21750.31;;;22.52;65.11
7337;BME280;54510;42.016;23.098;2022-09-09T05:13:21;-21736.91;;;22.02;67.00
7337;BME280;54510;42.016;23.098;2022-09-09T05:15:52;-21732.94;;;21.87;67.85
7337;BME280;54510;42.016;23.098;2022-09-09T05:18:18;-21747.31;;;22.40;66.34
7337;BME280;54510;42.016;23.098;2022-09-09T05:20:43;-21750.59;;;22.53;65.69
7337;BME280;54510;42.016;23.098;2022-09-09T05:23:08;-21754.00;;;22.65;65.37
7337;BME280;54510;42.016;23.098;2022-09-09T05:25:36;-21748.41;;;22.44;66.31
7337;BME280;54510;42.016;23.098;2022-09-09T05:28:01;-21751.13;;;22.55;66.07
7337;BME280;54510;42.016;23.098;2022-09-09T05:30:27;-21748.00;;;22.43;66.66
7337;BME280;54510;42.016;23.098;2022-09-09T05:32:55;-21751.28;;;22.55;66.47
7337;BME280;54510;42.016;23.098;2022-09-09T05:35:21;-21751.53;;;22.56;66.03
7337;BME280;54510;42.016;23.098;2022-09-09T05:37:46;-21750.84;;;22.54;66.50
7337;BME280;54510;42.016;23.098;2022-09-09T05:40:13;-21748.28;;;22.44;66.33
7337;BME280;54510;42.016;23.098;2022-09-09T05:42:38;-21755.50;;;22.71;65.35
7337;BME280;54510;42.016;23.098;2022-09-09T05:45:05;-21751.13;;;22.55;66.20
7337;BME280;54510;42.016;23.098;2022-09-09T05:47:32;-21757.28;;;22.77;65.11
7337;BME280;54510;42.016;23.098;2022-09-09T05:49:57;-21752.38;;;22.59;65.60
7337;BME280;54510;42.016;23.098;2022-09-09T05:52:22;-21757.44;;;22.78;65.42
7337;BME280;54510;42.016;23.098;2022-09-09T05:54:48;-21764.66;;;23.05;64.46
7337;BME280;54510;42.016;23.098;2022-09-09T05:57:14;-21766.84;;;23.13;64.05
7337;BME280;54510;42.016;23.098;2022-09-09T05:59:39;-21754.00;;;22.65;65.38
7337;BME280;54510;42.016;23.098;2022-09-09T06:02:05;-21754.13;;;22.66;65.66
7337;BME280;54510;42.016;23.098;2022-09-09T06:04:31;-21755.22;;;22.70;65.48
7337;BME280;54510;42.016;23.098;2022-09-09T06:06:56;-21755.66;;;22.71;66.00
7337;BME280;54510;42.016;23.098;2022-09-09T06:09:21;-21759.34;;;22.85;65.67
7337;BME280;54510;42.016;23.098;2022-09-09T06:11:48;-21758.50;;;22.82;65.93
7337;BME280;54510;42.016;23.098;2022-09-09T06:14:13;-21762.63;;;22.97;64.93
7337;BME280;54510;42.016;23.098;2022-09-09T06:16:39;-21765.75;;;23.09;64.66
7337;BME280;54510;42.016;23.098;2022-09-09T06:19:09;-21766.03;;;23.10;64.86
7337;BME280;54510;42.016;23.098;2022-09-09T06:21:36;-21774.34;;;23.41;63.78
7337;BME280;54510;42.016;23.098;2022-09-09T06:24:03;-21778.88;;;23.57;63.66
7337;BME280;54510;42.016;23.098;2022-09-09T06:26:33;-21784.59;;;23.79;62.78
7337;BME280;54510;42.016;23.098;2022-09-09T06:29:00;-21788.00;;;23.91;62.71
7337;BME280;54510;42.016;23.098;2022-09-09T06:31:28;-21791.00;;;24.02;62.29
7337;BME280;54510;42.016;23.098;2022-09-09T06:33:56;-21794.53;;;24.16;61.87
7337;BME280;54510;42.016;23.098;2022-09-09T06:36:33;-21800.13;;;24.36;60.86
7337;BME280;54510;42.016;23.098;2022-09-09T06:39:00;-21803.69;;;24.50;60.40
7337;BME280;54510;42.016;23.098;2022-09-09T06:41:28;-21807.91;;;24.65;60.35
7337;BME280;54510;42.016;23.098;2022-09-09T06:43:54;-21807.38;;;24.63;60.40
7337;BME280;54510;42.016;23.098;2022-09-09T06:46:24;-21807.09;;;24.62;60.35
7337;BME280;54510;42.016;23.098;2022-09-09T06:48:54;-21805.84;;;24.58;60.38
7337;BME280;54510;42.016;23.098;2022-09-09T06:51:31;-21808.19;;;24.66;60.14
7337;BME280;54510;42.016;23.098;2022-09-09T06:53:58;-21813.34;;;24.86;60.15
7337;BME280;54510;42.016;23.098;2022-09-09T06:56:33;-21814.16;;;24.89;59.45
7337;BME280;54510;42.016;23.098;2022-09-09T06:59:01;-21815.41;;;24.93;59.18
7337;BME280;54510;42.016;23.098;2022-09-09T07:01:39;-21821.94;;;25.17;58.61
7337;BME280;54510;42.016;23.098;2022-09-09T07:04:23;-21827.50;;;25.38;57.97
7337;BME280;54510;42.016;23.098;2022-09-09T07:06:48;-21830.22;;;25.48;57.94
7337;BME280;54510;42.016;23.098;2022-09-09T07:09:15;-21838.13;;;25.78;57.00
7337;BME280;54510;42.016;23.098;2022-09-09T07:11:46;-21842.63;;;25.94;56.78
7337;BME280;54510;42.016;23.098;2022-09-09T07:14:12;-21828.06;;;25.40;57.41
7337;BME280;54510;42.016;23.098;2022-09-09T07:16:42;-21837.84;;;25.77;56.77
7337;BME280;54510;42.016;23.098;2022-09-09T07:19:08;-21829.69;;;25.46;57.19
7337;BME280;54510;42.016;23.098;2022-09-09T07:21:34;-21853.63;;;26.35;55.72
7337;BME280;54510;42.016;23.098;2022-09-09T07:24:00;-21854.59;;;26.39;55.29
7337;BME280;54510;42.016;23.098;2022-09-09T07:26:27;-21865.59;;;26.80;54.38
7337;BME280;54510;42.016;23.098;2022-09-09T07:28:53;-21866.94;;;26.85;54.53
7337;BME280;54510;42.016;23.098;2022-09-09T07:31:24;-21866.41;;;26.83;54.43
7337;BME280;54510;42.016;23.098;2022-09-09T07:33:51;-21874.00;;;27.11;54.06
7337;BME280;54510;42.016;23.098;2022-09-09T07:36:19;-21869.53;;;26.95;53.54
7337;BME280;54510;42.016;23.098;2022-09-09T07:38:51;-21861.78;;;26.66;55.04
7337;BME280;54510;42.016;23.098;2022-09-09T07:41:25;-21872.38;;;27.05;53.92
7337;BME280;54510;42.016;23.098;2022-09-09T07:43:52;-21880.91;;;27.37;52.87
7337;BME280;54510;42.016;23.098;2022-09-09T07:46:20;-21878.47;;;27.28;53.14
7337;BME280;54510;42.016;23.098;2022-09-09T07:48:47;-21882.69;;;27.44;52.96
7337;BME280;54510;42.016;23.098;2022-09-09T07:51:17;-21888.78;;;27.67;52.85
7337;BME280;54510;42.016;23.098;2022-09-09T07:53:44;-21891.63;;;27.77;52.30
7337;BME280;54510;42.016;23.098;2022-09-09T07:56:13;-21896.53;;;27.96;52.28
7337;BME280;54510;42.016;23.098;2022-09-09T07:58:39;-21907.91;;;28.38;51.00
7337;BME280;54510;42.016;23.098;2022-09-09T08:01:11;-21914.25;;;28.62;50.59
7337;BME280;54510;42.016;23.098;2022-09-09T08:03:36;-21920.91;;;28.87;50.05
7337;BME280;54510;42.016;23.098;2022-09-09T08:06:03;-21930.91;;;29.24;49.93
7337;BME280;54510;42.016;23.098;2022-09-09T08:08:29;-21931.47;;;29.26;49.02
7337;BME280;54510;42.016;23.098;2022-09-09T08:11:15;-21930.50;;;29.23;48.87
7337;BME280;54510;42.016;23.098;2022-09-09T08:13:42;-21936.47;;;29.45;48.63
7337;BME280;54510;42.016;23.098;2022-09-09T08:18:38;-21935.13;;;29.40;49.02
7337;BME280;54510;42.016;23.098;2022-09-09T08:23:33;-21946.88;;;29.84;45.90
7337;BME280;54510;42.016;23.098;2022-09-09T08:26:06;-21957.53;;;30.24;44.66
7337;BME280;54510;42.016;23.098;2022-09-09T08:28:32;-21966.59;;;30.58;42.92
7337;BME280;54510;42.016;23.098;2022-09-09T08:31:13;-21967.13;;;30.60;41.61
7337;BME280;54510;42.016;23.098;2022-09-09T08:33:40;-21970.38;;;30.72;40.99
7337;BME280;54510;42.016;23.098;2022-09-09T08:36:08;-21973.88;;;30.85;39.90
7337;BME280;54510;42.016;23.098;2022-09-09T08:38:34;-21988.72;;;31.41;39.68
7337;BME280;54510;42.016;23.098;2022-09-09T08:49:33;-22008.78;;;32.16;39.13
7337;BME280;54510;42.016;23.098;2022-09-09T08:51:53;-22009.59;;;32.20;37.96
7337;BME280;54510;42.016;23.098;2022-09-09T08:54:20;-22016.47;;;32.45;37.00
7337;BME280;54510;42.016;23.098;2022-09-09T08:56:46;-22009.19;;;32.18;36.63
7337;BME280;54510;42.016;23.098;2022-09-09T08:59:15;-22014.84;;;32.39;36.12
7337;BME280;54510;42.016;23.098;2022-09-09T09:12:15;-22018.34;;;32.52;36.46
7337;BME280;54510;42.016;23.098;2022-09-09T09:14:42;-22033.16;;;33.08;36.62
7337;BME280;54510;42.016;23.098;2022-09-09T09:17:13;-22035.31;;;33.16;36.96
7337;BME280;54510;42.016;23.098;2022-09-09T09:19:41;-22018.22;;;32.52;36.58
7337;BME280;54510;42.016;23.098;2022-09-09T09:25:18;-22021.84;;;32.66;37.01
7337;BME280;54510;42.016;23.098;2022-09-09T09:27:57;-22020.78;;;32.62;37.18
7337;BME280;54510;42.016;23.098;2022-09-09T09:30:49;-22015.94;;;32.43;37.56
7337;BME280;54510;42.016;23.098;2022-09-09T09:33:24;-22030.72;;;32.99;36.99
7337;BME280;54510;42.016;23.098;2022-09-09T09:35:52;-22041.63;;;33.40;36.57
7337;BME280;54510;42.016;23.098;2022-09-09T09:38:23;-22041.75;;;33.41;36.20
7337;BME280;54510;42.016;23.098;2022-09-09T09:40:57;-22031.25;;;33.01;36.34
7337;BME280;54510;42.016;23.098;2022-09-09T09:43:31;-22034.75;;;33.14;35.85
7337;BME280;54510;42.016;23.098;2022-09-09T09:45:57;-22036.91;;;33.22;35.37
7337;BME280;54510;42.016;23.098;2022-09-09T09:48:24;-22029.66;;;32.95;35.84
7337;BME280;54510;42.016;23.098;2022-09-09T09:51:11;-22035.84;;;33.18;35.37
7337;BME280;54510;42.016;23.098;2022-09-09T09:53:40;-22031.25;;;33.01;35.71
7337;BME280;54510;42.016;23.098;2022-09-09T09:56:08;-22016.47;;;32.45;36.77
7337;BME280;54510;42.016;23.098;2022-09-09T10:01:31;-22035.44;;;33.17;36.57
7337;BME280;54510;42.016;23.098;2022-09-09T10:04:23;-22035.31;;;33.16;36.26
7337;BME280;54510;42.016;23.098;2022-09-09T10:06:49;-22039.34;;;33.31;36.06
7337;BME280;54510;42.016;23.098;2022-09-09T10:09:24;-22040.13;;;33.35;36.17
7337;BME280;54510;42.016;23.098;2022-09-09T10:27:02;-22028.97;;;32.92;37.78
7337;BME280;54510;42.016;23.098;2022-09-09T10:32:45;-22038.00;;;33.26;36.81
7337;BME280;54510;42.016;23.098;2022-09-09T10:38:13;-22035.69;;;33.18;37.25
7337;BME280;54510;42.016;23.098;2022-09-09T10:43:57;-22038.78;;;33.29;37.04
7337;BME280;54510;42.016;23.098;2022-09-09T10:49:41;-22043.91;;;33.49;37.20
7337;BME280;54510;42.016;23.098;2022-09-09T11:00:17;-22046.59;;;33.59;36.60
7337;BME280;54510;42.016;23.098;2022-09-09T11:02:42;-22059.34;;;34.07;36.50
7337;BME280;54510;42.016;23.098;2022-09-09T11:07:58;-22064.19;;;34.25;36.43
7337;BME280;54510;42.016;23.098;2022-09-09T11:12:54;-22064.84;;;34.28;35.70
7337;BME280;54510;42.016;23.098;2022-09-09T11:15:29;-22063.38;;;34.22;36.08
7337;BME280;54510;42.016;23.098;2022-09-09T11:17:58;-22064.84;;;34.28;36.74
7337;BME280;54510;42.016;23.098;2022-09-09T11:20:26;-22054.91;;;33.90;37.36
7337;BME280;54510;42.016;23.098;2022-09-09T11:23:20;-22054.25;;;33.88;36.31
7337;BME280;54510;42.016;23.098;2022-09-09T11:25:55;-22049.00;;;33.68;36.52
7337;BME280;54510;42.016;23.098;2022-09-09T11:32:00;-22065.91;;;34.32;36.14
7337;BME280;54510;42.016;23.098;2022-09-09T11:35:17;-22061.22;;;34.14;35.95
7337;BME280;54510;42.016;23.098;2022-09-09T11:38:46;-22060.81;;;34.13;36.48
7337;BME280;54510;42.016;23.098;2022-09-09T11:40:40;-22053.03;;;33.83;37.00
7337;BME280;54510;42.016;23.098;2022-09-09T11:43:12;-22057.59;;;34.00;36.28
7337;BME280;54510;42.016;23.098;2022-09-09T11:45:42;-22054.91;;;33.90;36.60
7337;BME280;54510;42.016;23.098;2022-09-09T11:51:13;-22067.81;;;34.39;36.61
7337;BME280;54510;42.016;23.098;2022-09-09T11:53:55;-22052.38;;;33.81;36.72
7337;BME280;54510;42.016;23.098;2022-09-09T11:56:28;-22063.63;;;34.23;36.25
7337;BME280;54510;42.016;23.098;2022-09-09T11:59:04;-22062.44;;;34.19;36.49
7337;BME280;54510;42.016;23.098;2022-09-09T12:01:43;-22059.88;;;34.09;36.47
7337;BME280;54510;42.016;23.098;2022-09-09T12:06:44;-22066.84;;;34.35;36.46
7337;BME280;54510;42.016;23.098;2022-09-09T12:09:36;-22078.66;;;34.80;35.27
7337;BME280;54510;42.016;23.098;2022-09-09T12:14:56;-22082.00;;;34.93;37.39
7337;BME280;54510;42.016;23.098;2022-09-09T12:17:23;-22073.69;;;34.61;36.13
7337;BME280;54510;42.016;23.098;2022-09-09T12:24:02;-22076.09;;;34.70;37.29
7337;BME280;54510;42.016;23.098;2022-09-09T12:34:48;-22086.03;;;35.08;35.85
7337;BME280;54510;42.016;23.098;2022-09-09T12:37:34;-22082.41;;;34.94;37.31
7337;BME280;54510;42.016;23.098;2022-09-09T12:40:21;-22081.88;;;34.92;38.52
7337;BME280;54510;42.016;23.098;2022-09-09T12:42:47;-22082.28;;;34.94;37.64
7337;BME280;54510;42.016;23.098;2022-09-09T12:45:27;-22084.41;;;35.02;36.23
7337;BME280;54510;42.016;23.098;2022-09-09T12:50:28;-22086.03;;;35.08;36.76
7337;BME280;54510;42.016;23.098;2022-09-09T12:52:57;-22080.66;;;34.87;37.66
7337;BME280;54510;42.016;23.098;2022-09-09T12:55:32;-22070.47;;;34.49;39.10
7337;BME280;54510;42.016;23.098;2022-09-09T12:58:04;-22063.63;;;34.23;39.21
7337;BME280;54510;42.016;23.098;2022-09-09T13:00:31;-22061.50;;;34.15;39.28
7337;BME280;54510;42.016;23.098;2022-09-09T13:02:59;-22066.72;;;34.35;39.28
7337;BME280;54510;42.016;23.098;2022-09-09T13:05:27;-22065.78;;;34.31;38.38
7337;BME280;54510;42.016;23.098;2022-09-09T13:08:05;-22065.25;;;34.29;40.11
7337;BME280;54510;42.016;23.098;2022-09-09T13:10:34;-22062.97;;;34.21;38.03
7337;BME280;54510;42.016;23.098;2022-09-09T13:13:01;-22061.09;;;34.14;39.65
7337;BME280;54510;42.016;23.098;2022-09-09T13:15:28;-22050.34;;;33.73;39.78
7337;BME280;54510;42.016;23.098;2022-09-09T13:18:00;-22044.69;;;33.52;40.05
7337;BME280;54510;42.016;23.098;2022-09-09T13:20:28;-22040.41;;;33.36;39.95
7337;BME280;54510;42.016;23.098;2022-09-09T13:22:55;-22040.94;;;33.38;41.27
7337;BME280;54510;42.016;23.098;2022-09-09T13:25:28;-22037.44;;;33.24;41.21
7337;BME280;54510;42.016;23.098;2022-09-09T13:28:00;-22039.47;;;33.32;40.92
7337;BME280;54510;42.016;23.098;2022-09-09T13:30:30;-22031.41;;;33.02;40.53
7337;BME280;54510;42.016;23.098;2022-09-09T13:35:54;-22030.88;;;33.00;41.17
7337;BME280;54510;42.016;23.098;2022-09-09T13:38:21;-22026.97;;;32.85;41.81
7337;BME280;54510;42.016;23.098;2022-09-09T13:41:01;-22025.88;;;32.81;41.34
7337;BME280;54510;42.016;23.098;2022-09-09T13:43:29;-22024.13;;;32.74;41.14
7337;BME280;54510;42.016;23.098;2022-09-09T13:46:02;-22020.91;;;32.62;41.25
7337;BME280;54510;42.016;23.098;2022-09-09T13:48:27;-22022.41;;;32.68;41.48
7337;BME280;54510;42.016;23.098;2022-09-09T13:51:00;-22029.13;;;32.93;40.64
7337;BME280;54510;42.016;23.098;2022-09-09T13:53:26;-22026.44;;;32.83;40.77
7337;BME280;54510;42.016;23.098;2022-09-09T13:55:53;-22022.78;;;32.69;41.54
7337;BME280;54510;42.016;23.098;2022-09-09T13:58:19;-22025.34;;;32.79;41.68
7337;BME280;54510;42.016;23.098;2022-09-09T14:00:44;-22028.31;;;32.90;41.66
7337;BME280;54510;42.016;23.098;2022-09-09T14:03:10;-22032.34;;;33.05;40.82
7337;BME280;54510;42.016;23.098;2022-09-09T14:05:36;-22035.03;;;33.15;40.62
7337;BME280;54510;42.016;23.098;2022-09-09T14:08:06;-22033.94;;;33.11;40.97
7337;BME280;54510;42.016;23.098;2022-09-09T14:10:32;-22032.34;;;33.05;40.96
7337;BME280;54510;42.016;23.098;2022-09-09T14:12:57;-22026.56;;;32.83;40.94
7337;BME280;54510;42.016;23.098;2022-09-09T14:15:23;-22023.59;;;32.72;41.77
7337;BME280;54510;42.016;23.098;2022-09-09T14:17:49;-22020.91;;;32.62;41.45
7337;BME280;54510;42.016;23.098;2022-09-09T14:20:14;-22025.09;;;32.78;42.98
7337;BME280;54510;42.016;23.098;2022-09-09T14:22:42;-22029.38;;;32.94;42.24
7337;BME280;54510;42.016;23.098;2022-09-09T14:25:09;-22028.44;;;32.90;42.80
7337;BME280;54510;42.016;23.098;2022-09-09T14:27:34;-22026.97;;;32.85;42.90
7337;BME280;54510;42.016;23.098;2022-09-09T14:30:00;-22025.88;;;32.81;42.70
7337;BME280;54510;42.016;23.098;2022-09-09T14:32:26;-22036.66;;;33.21;41.46
7337;BME280;54510;42.016;23.098;2022-09-09T14:34:51;-22056.00;;;33.94;39.69
7337;BME280;54510;42.016;23.098;2022-09-09T14:37:17;-22066.47;;;34.34;38.69
7337;BME280;54510;42.016;23.098;2022-09-09T14:39:43;-22067.94;;;34.39;38.89
7337;BME280;54510;42.016;23.098;2022-09-09T14:42:10;-22077.44;;;34.75;38.16
7337;BME280;54510;42.016;23.098;2022-09-09T14:44:37;-22080.00;;;34.85;37.99
7337;BME280;54510;42.016;23.098;2022-09-09T14:47:04;-22091.94;;;35.30;37.11
7337;BME280;54510;42.016;23.098;2022-09-09T14:49:30;-22087.75;;;35.14;37.03
7337;BME280;54510;42.016;23.098;2022-09-09T14:51:56;-22097.69;;;35.52;36.20
7337;BME280;54510;42.016;23.098;2022-09-09T14:54:21;-22105.31;;;35.81;35.49
7337;BME280;54510;42.016;23.098;2022-09-09T14:56:48;-22105.97;;;35.83;35.10
7337;BME280;54510;42.016;23.098;2022-09-09T14:59:13;-22099.97;;;35.60;35.37
7337;BME280;54510;42.016;23.098;2022-09-09T15:01:39;-22095.28;;;35.43;35.97
7337;BME280;54510;42.016;23.098;2022-09-09T15:04:05;-22104.91;;;35.79;35.92
7337;BME280;54510;42.016;23.098;2022-09-09T15:06:33;-22096.63;;;35.48;36.77
7337;BME280;54510;42.016;23.098;2022-09-09T15:09:00;-22093.41;;;35.36;36.19
7337;BME280;54510;42.016;23.098;2022-09-09T15:11:27;-22087.38;;;35.13;36.74
7337;BME280;54510;42.016;23.098;2022-09-09T15:13:53;-22074.63;;;34.65;37.78
7337;BME280;54510;42.016;23.098;2022-09-09T15:16:21;-22072.91;;;34.58;37.86
7337;BME280;54510;42.016;23.098;2022-09-09T15:18:51;-22058.13;;;34.02;39.19
7337;BME280;54510;42.016;23.098;2022-09-09T15:21:19;-22050.09;;;33.72;38.98
7337;BME280;54510;42.016;23.098;2022-09-09T15:23:45;-22048.19;;;33.65;39.23
7337;BME280;54510;42.016;23.098;2022-09-09T15:26:12;-22046.72;;;33.59;39.36